sensor_id;sensor_type;location;lat;lon;timestamp;pressure;altitude;pressure_sealevel;temperature;humidity
46347;BME280;32057;47.830;19.046;2023-02-28T00:02:19;101390.47;;;-2.41;94.97
46347;BME280;32057;47.830;19.046;2023-02-28T00:04:45;101389.84;;;-2.38;95.17
46347;BME280;32057;47.830;19.046;2023-02-28T00:07:11;101392.41;;;-2.38;96.02
46347;BME280;32057;47.830;19.046;2023-02-28T00:09:36;101392.25;;;-2.40;95.98
46347;BME280;32057;47.830;19.046;2023-02-28T00:12:02;101396.94;;;-2.45;96.19
46347;BME280;32057;47.830;19.046;2023-02-28T00:14:35;101401.91;;;-2.46;97.02
46347;BME280;32057;47.830;19.046;2023-02-28T00:17:01;101402.88;;;-2.54;97.65
46347;BME280;32057;47.830;19.046;2023-02-28T00:19:26;101399.63;;;-2.62;98.18
46347;BME280;32057;47.830;19.046;2023-02-28T00:21:51;101398.75;;;-2.63;99.16
46347;BME280;32057;47.830;19.046;2023-02-28T00:24:17;101400.19;;;-2.56;99.48
46347;BME280;32057;47.830;19.046;2023-02-28T00:26:42;101402.72;;;-2.56;99.60
46347;BME280;32057;47.830;19.046;2023-02-28T00:29:08;101396.59;;;-2.58;100.00
46347;BME280;32057;47.830;19.046;2023-02-28T00:31:33;101406.47;;;-2.52;98.88
46347;BME280;32057;47.830;19.046;2023-02-28T00:33:58;101406.25;;;-2.45;99.07
46347;BME280;32057;47.830;19.046;2023-02-28T00:36:24;101400.94;;;-2.38;98.24
46347;BME280;32057;47.830;19.046;2023-02-28T00:38:49;101400.44;;;-2.34;99.18
46347;BME280;32057;47.830;19.046;2023-02-28T00:41:15;101400.72;;;-2.31;98.67
46347;BME280;32057;47.830;19.046;2023-02-28T00:43:40;101401.91;;;-2.27;98.46
46347;BME280;32057;47.830;19.046;2023-02-28T00:46:06;101406.50;;;-2.23;98.17
46347;BME280;32057;47.830;19.046;2023-02-28T00:48:32;101405.13;;;-2.19;97.64
46347;BME280;32057;47.830;19.046;2023-02-28T00:50:58;101407.69;;;-2.19;98.02
46347;BME280;32057;47.830;19.046;2023-02-28T00:53:23;101406.16;;;-2.17;97.01
46347;BME280;32057;47.830;19.046;2023-02-28T00:55:50;101409.41;;;-2.29;97.99
46347;BME280;32057;47.830;19.046;2023-02-28T00:58:15;101408.91;;;-2.25;98.27
46347;BME280;32057;47.830;19.046;2023-02-28T01:00:41;101410.09;;;-2.21;99.21
46347;BME280;32057;47.830;19.046;2023-02-28T01:03:06;101415.44;;;-2.18;98.28
46347;BME280;32057;47.830;19.046;2023-02-28T01:05:32;101410.97;;;-2.21;98.18
46347;BME280;32057;47.830;19.046;2023-02-28T01:07:57;101416.91;;;-2.30;98.39
46347;BME280;32057;47.830;19.046;2023-02-28T01:10:23;101407.22;;;-2.34;98.87
46347;BME280;32057;47.830;19.046;2023-02-28T01:12:48;101410.38;;;-2.37;98.32
46347;BME280;32057;47.830;19.046;2023-02-28T01:15:13;101403.97;;;-2.42;98.20
46347;BME280;32057;47.830;19.046;2023-02-28T01:17:39;101417.81;;;-2.49;97.94
46347;BME280;32057;47.830;19.046;2023-02-28T01:20:05;101415.06;;;-2.61;98.51
46347;BME280;32057;47.830;19.046;2023-02-28T01:22:30;101412.13;;;-2.65;99.15
46347;BME280;32057;47.830;19.046;2023-02-28T01:24:56;101416.97;;;-2.58;100.00
46347;BME280;32057;47.830;19.046;2023-02-28T01:27:21;101419.59;;;-2.48;99.61
46347;BME280;32057;47.830;19.046;2023-02-28T01:29:47;101418.66;;;-2.39;100.00
46347;BME280;32057;47.830;19.046;2023-02-28T01:32:12;101426.72;;;-2.35;100.00
46347;BME280;32057;47.830;19.046;2023-02-28T01:34:38;101419.31;;;-2.32;99.76
46347;BME280;32057;47.830;19.046;2023-02-28T01:37:03;101429.66;;;-2.30;99.66
46347;BME280;32057;47.830;19.046;2023-02-28T01:39:29;101423.69;;;-2.31;99.48
46347;BME280;32057;47.830;19.046;2023-02-28T01:41:54;101423.81;;;-2.29;99.53
46347;BME280;32057;47.830;19.046;2023-02-28T01:47:20;101423.09;;;-2.18;99.13
46347;BME280;32057;47.830;19.046;2023-02-28T01:49:47;101417.50;;;-2.14;98.22
46347;BME280;32057;47.830;19.046;2023-02-28T01:52:13;101413.56;;;-2.10;99.30
46347;BME280;32057;47.830;19.046;2023-02-28T01:54:47;101418.97;;;-2.07;99.98
46347;BME280;32057;47.830;19.046;2023-02-28T01:57:19;101417.78;;;-2.11;100.00
46347;BME280;32057;47.830;19.046;2023-02-28T02:00:00;101408.47;;;-2.10;99.65
46347;BME280;32057;47.830;19.046;2023-02-28T02:02:30;101412.19;;;-2.07;100.00
46347;BME280;32057;47.830;19.046;2023-02-28T02:05:05;101410.81;;;-2.03;100.00
46347;BME280;32057;47.830;19.046;2023-02-28T02:07:35;101413.75;;;-1.98;100.00
46347;BME280;32057;47.830;19.046;2023-02-28T02:10:15;101408.94;;;-1.95;99.43
46347;BME280;32057;47.830;19.046;2023-02-28T02:18:34;101410.16;;;-1.82;100.00
46347;BME280;32057;47.830;19.046;2023-02-28T02:23:53;101407.22;;;-1.76;99.91
46347;BME280;32057;47.830;19.046;2023-02-28T02:31:51;101406.25;;;-1.68;100.00
46347;BME280;32057;47.830;19.046;2023-02-28T02:37:07;101407.38;;;-1.64;100.00
46347;BME280;32057;47.830;19.046;2023-02-28T02:39:53;101399.66;;;-1.45;92.16
46347;BME280;32057;47.830;19.046;2023-02-28T02:42:25;101390.38;;;-1.24;86.62
46347;BME280;32057;47.830;19.046;2023-02-28T02:45:01;101398.56;;;-1.08;83.51
46347;BME280;32057;47.830;19.046;2023-02-28T02:47:30;101393.56;;;-0.96;81.32
46347;BME280;32057;47.830;19.046;2023-02-28T02:49:59;101398.31;;;-0.90;83.13
46347;BME280;32057;47.830;19.046;2023-02-28T02:52:36;101404.44;;;-0.88;82.08
46347;BME280;32057;47.830;19.046;2023-02-28T02:55:05;101402.38;;;-0.82;81.87
46347;BME280;32057;47.830;19.046;2023-02-28T02:58:02;101408.28;;;-0.73;81.74
46347;BME280;32057;47.830;19.046;2023-02-28T03:00:39;101401.75;;;-0.69;82.40
46347;BME280;32057;47.830;19.046;2023-02-28T03:03:07;101400.09;;;-0.69;81.87
46347;BME280;32057;47.830;19.046;2023-02-28T03:05:42;101399.56;;;-0.65;81.59
46347;BME280;32057;47.830;19.046;2023-02-28T03:08:09;101398.81;;;-0.64;78.56
46347;BME280;32057;47.830;19.046;2023-02-28T03:10:43;101398.53;;;-0.56;76.82
46347;BME280;32057;47.830;19.046;2023-02-28T03:22:23;101403.13;;;-0.52;75.41
46347;BME280;32057;47.830;19.046;2023-02-28T03:25:08;101406.34;;;-0.65;78.35
46347;BME280;32057;47.830;19.046;2023-02-28T03:30:57;101414.16;;;-0.64;86.07
46347;BME280;32057;47.830;19.046;2023-02-28T03:33:29;101409.94;;;-0.73;87.69
46347;BME280;32057;47.830;19.046;2023-02-28T03:35:59;101415.44;;;-0.79;90.07
46347;BME280;32057;47.830;19.046;2023-02-28T03:41:00;101415.94;;;-0.83;90.44
46347;BME280;32057;47.830;19.046;2023-02-28T03:43:33;101418.00;;;-0.89;91.42
46347;BME280;32057;47.830;19.046;2023-02-28T03:46:02;101416.69;;;-0.94;92.03
46347;BME280;32057;47.830;19.046;2023-02-28T03:48:38;101428.44;;;-0.96;91.64
46347;BME280;32057;47.830;19.046;2023-02-28T03:51:09;101421.19;;;-0.92;90.90
46347;BME280;32057;47.830;19.046;2023-02-28T03:53:38;101423.97;;;-0.89;91.28
46347;BME280;32057;47.830;19.046;2023-02-28T03:56:11;101415.44;;;-0.99;89.75
46347;BME280;32057;47.830;19.046;2023-02-28T03:58:54;101408.00;;;-0.96;90.40
46347;BME280;32057;47.830;19.046;2023-02-28T04:01:28;101412.38;;;-0.95;91.05
46347;BME280;32057;47.830;19.046;2023-02-28T04:03:55;101416.97;;;-0.91;89.86
46347;BME280;32057;47.830;19.046;2023-02-28T04:06:22;101407.13;;;-0.97;90.27
46347;BME280;32057;47.830;19.046;2023-02-28T04:08:48;101404.44;;;-0.98;90.72
46347;BME280;32057;47.830;19.046;2023-02-28T04:13:46;101405.72;;;-0.83;94.01
46347;BME280;32057;47.830;19.046;2023-02-28T04:16:11;101407.63;;;-0.81;95.89
46347;BME280;32057;47.830;19.046;2023-02-28T04:18:38;101409.69;;;-0.87;97.45
46347;BME280;32057;47.830;19.046;2023-02-28T04:21:04;101407.25;;;-0.85;96.62
46347;BME280;32057;47.830;19.046;2023-02-28T04:23:30;101406.47;;;-0.94;97.83
46347;BME280;32057;47.830;19.046;2023-02-28T04:25:56;101410.31;;;-0.89;97.60
46347;BME280;32057;47.830;19.046;2023-02-28T04:28:21;101402.00;;;-0.87;96.64
46347;BME280;32057;47.830;19.046;2023-02-28T04:30:47;101403.91;;;-0.84;95.60
46347;BME280;32057;47.830;19.046;2023-02-28T04:33:12;101403.03;;;-0.85;96.24
46347;BME280;32057;47.830;19.046;2023-02-28T04:35:38;101398.06;;;-0.83;95.92
46347;BME280;32057;47.830;19.046;2023-02-28T04:38:03;101395.13;;;-0.77;89.82
46347;BME280;32057;47.830;19.046;2023-02-28T04:40:29;101397.03;;;-0.75;85.87
46347;BME280;32057;47.830;19.046;2023-02-28T04:42:54;101393.94;;;-0.71;84.02
46347;BME280;32057;47.830;19.046;2023-02-28T04:45:19;101387.66;;;-0.64;84.48
46347;BME280;32057;47.830;19.046;2023-02-28T04:47:45;101382.44;;;-0.55;79.93
46347;BME280;32057;47.830;19.046;2023-02-28T04:50:10;101385.19;;;-0.42;77.32
46347;BME280;32057;47.830;19.046;2023-02-28T04:52:36;101390.84;;;-0.36;75.97
46347;BME280;32057;47.830;19.046;2023-02-28T04:55:01;101391.22;;;-0.31;75.35
46347;BME280;32057;47.830;19.046;2023-02-28T04:57:26;101389.53;;;-0.31;75.47
46347;BME280;32057;47.830;19.046;2023-02-28T04:59:52;101381.09;;;-0.30;74.56
46347;BME280;32057;47.830;19.046;2023-02-28T05:02:18;101388.00;;;-0.29;73.21
46347;BME280;32057;47.830;19.046;2023-02-28T05:04:43;101388.00;;;-0.29;73.49
46347;BME280;32057;47.830;19.046;2023-02-28T05:07:09;101388.25;;;-0.26;72.76
46347;BME280;32057;47.830;19.046;2023-02-28T05:09:35;101390.91;;;-0.24;72.42
46347;BME280;32057;47.830;19.046;2023-02-28T05:12:00;101389.28;;;-0.24;72.45
46347;BME280;32057;47.830;19.046;2023-02-28T05:14:26;101394.91;;;-0.28;74.69
46347;BME280;32057;47.830;19.046;2023-02-28T05:16:51;101387.88;;;-0.30;71.61
46347;BME280;32057;47.830;19.046;2023-02-28T05:19:17;101392.59;;;-0.25;72.44
46347;BME280;32057;47.830;19.046;2023-02-28T05:22:00;101391.81;;;-0.24;73.93
46347;BME280;32057;47.830;19.046;2023-02-28T05:24:25;101395.78;;;-0.27;72.55
46347;BME280;32057;47.830;19.046;2023-02-28T05:26:52;101401.13;;;-0.24;72.34
46347;BME280;32057;47.830;19.046;2023-02-28T05:29:18;101407.41;;;-0.21;72.41
46347;BME280;32057;47.830;19.046;2023-02-28T05:31:44;101405.88;;;-0.18;72.79
46347;BME280;32057;47.830;19.046;2023-02-28T05:34:12;101403.16;;;-0.20;73.04
46347;BME280;32057;47.830;19.046;2023-02-28T05:36:38;101410.97;;;-0.18;72.32
46347;BME280;32057;47.830;19.046;2023-02-28T05:39:07;101410.75;;;-0.22;73.63
46347;BME280;32057;47.830;19.046;2023-02-28T05:41:38;101420.97;;;-0.22;73.42
46347;BME280;32057;47.830;19.046;2023-02-28T05:44:03;101425.03;;;-0.13;74.63
46347;BME280;32057;47.830;19.046;2023-02-28T05:46:29;101425.94;;;-0.13;72.76
46347;BME280;32057;47.830;19.046;2023-02-28T05:48:54;101423.25;;;-0.14;73.68
46347;BME280;32057;47.830;19.046;2023-02-28T05:51:20;101425.19;;;-0.12;72.27
46347;BME280;32057;47.830;19.046;2023-02-28T05:53:46;101429.16;;;-0.15;70.08
46347;BME280;32057;47.830;19.046;2023-02-28T05:56:13;101426.59;;;-0.15;73.22
46347;BME280;32057;47.830;19.046;2023-02-28T05:58:38;101430.41;;;-0.10;72.54
46347;BME280;32057;47.830;19.046;2023-02-28T06:01:40;101433.75;;;-0.11;72.79
46347;BME280;32057;47.830;19.046;2023-02-28T06:04:10;101439.75;;;-0.11;73.70
46347;BME280;32057;47.830;19.046;2023-02-28T06:06:36;101440.22;;;-0.05;72.65
46347;BME280;32057;47.830;19.046;2023-02-28T06:09:03;101439.56;;;-0.02;73.12
46347;BME280;32057;47.830;19.046;2023-02-28T06:11:29;101439.84;;;0.01;71.95
46347;BME280;32057;47.830;19.046;2023-02-28T06:13:56;101430.75;;;0.05;71.28
46347;BME280;32057;47.830;19.046;2023-02-28T06:16:23;101435.50;;;0.00;70.13
46347;BME280;32057;47.830;19.046;2023-02-28T06:18:48;101432.16;;;0.01;71.21
46347;BME280;32057;47.830;19.046;2023-02-28T06:21:14;101435.59;;;0.02;68.89
46347;BME280;32057;47.830;19.046;2023-02-28T06:23:39;101443.78;;;0.08;68.82
46347;BME280;32057;47.830;19.046;2023-02-28T06:26:05;101450.91;;;0.12;68.97
46347;BME280;32057;47.830;19.046;2023-02-28T06:28:31;101449.28;;;0.12;69.65
46347;BME280;32057;47.830;19.046;2023-02-28T06:30:57;101452.06;;;0.15;67.45
46347;BME280;32057;47.830;19.046;2023-02-28T06:33:22;101449.50;;;0.15;68.74
46347;BME280;32057;47.830;19.046;2023-02-28T06:35:51;101456.03;;;0.12;68.83
46347;BME280;32057;47.830;19.046;2023-02-28T06:38:17;101457.19;;;0.15;69.25
46347;BME280;32057;47.830;19.046;2023-02-28T06:40:43;101450.41;;;0.16;67.94
46347;BME280;32057;47.830;19.046;2023-02-28T06:43:09;101449.78;;;0.18;69.28
46347;BME280;32057;47.830;19.046;2023-02-28T06:45:41;101448.22;;;0.21;70.14
46347;BME280;32057;47.830;19.046;2023-02-28T06:48:07;101446.69;;;0.23;69.70
46347;BME280;32057;47.830;19.046;2023-02-28T06:50:32;101455.50;;;0.26;70.93
46347;BME280;32057;47.830;19.046;2023-02-28T06:52:58;101459.78;;;0.37;68.04
46347;BME280;32057;47.830;19.046;2023-02-28T06:55:24;101457.88;;;0.35;68.13
46347;BME280;32057;47.830;19.046;2023-02-28T06:57:50;101455.69;;;0.39;67.03
46347;BME280;32057;47.830;19.046;2023-02-28T07:00:16;101457.63;;;0.32;67.97
46347;BME280;32057;47.830;19.046;2023-02-28T07:02:41;101457.75;;;0.33;67.66
46347;BME280;32057;47.830;19.046;2023-02-28T07:05:07;101460.19;;;0.42;70.25
46347;BME280;32057;47.830;19.046;2023-02-28T07:07:33;101451.97;;;0.46;68.96
46347;BME280;32057;47.830;19.046;2023-02-28T07:09:59;101451.22;;;0.37;69.11
46347;BME280;32057;47.830;19.046;2023-02-28T07:12:24;101449.50;;;0.48;70.29
46347;BME280;32057;47.830;19.046;2023-02-28T07:14:50;101455.28;;;0.45;68.95
46347;BME280;32057;47.830;19.046;2023-02-28T07:17:15;101458.03;;;0.58;68.98
46347;BME280;32057;47.830;19.046;2023-02-28T07:19:41;101454.69;;;0.59;68.73
46347;BME280;32057;47.830;19.046;2023-02-28T07:22:07;101457.19;;;0.70;67.89
46347;BME280;32057;47.830;19.046;2023-02-28T07:24:32;101461.38;;;0.79;67.82
46347;BME280;32057;47.830;19.046;2023-02-28T07:26:58;101463.78;;;0.88;66.58
46347;BME280;32057;47.830;19.046;2023-02-28T07:29:24;101460.19;;;0.86;65.97
46347;BME280;32057;47.830;19.046;2023-02-28T07:31:50;101462.84;;;0.88;67.80
46347;BME280;32057;47.830;19.046;2023-02-28T07:34:18;101471.53;;;0.90;65.54
46347;BME280;32057;47.830;19.046;2023-02-28T07:36:44;101465.66;;;0.91;68.05
46347;BME280;32057;47.830;19.046;2023-02-28T07:39:09;101472.41;;;1.01;66.31
46347;BME280;32057;47.830;19.046;2023-02-28T07:41:35;101472.41;;;1.01;65.27
46347;BME280;32057;47.830;19.046;2023-02-28T07:44:04;101468.34;;;0.92;66.92
46347;BME280;32057;47.830;19.046;2023-02-28T07:46:30;101469.41;;;1.06;66.99
46347;BME280;32057;47.830;19.046;2023-02-28T07:49:00;101470.09;;;1.15;65.68
46347;BME280;32057;47.830;19.046;2023-02-28T07:51:28;101465.22;;;1.18;66.21
46347;BME280;32057;47.830;19.046;2023-02-28T07:53:54;101475.06;;;1.24;66.44
46347;BME280;32057;47.830;19.046;2023-02-28T07:56:19;101472.41;;;1.34;66.25
46347;BME280;32057;47.830;19.046;2023-02-28T07:58:44;101472.03;;;1.18;65.16
46347;BME280;32057;47.830;19.046;2023-02-28T08:01:11;101475.31;;;1.39;64.69
46347;BME280;32057;47.830;19.046;2023-02-28T08:03:37;101479.69;;;1.40;63.85
46347;BME280;32057;47.830;19.046;2023-02-28T08:06:08;101474.84;;;1.33;64.85
46347;BME280;32057;47.830;19.046;2023-02-28T08:08:39;101477.06;;;1.28;65.31
46347;BME280;32057;47.830;19.046;2023-02-28T08:11:05;101483.88;;;1.39;64.50
46347;BME280;32057;47.830;19.046;2023-02-28T08:13:30;101484.28;;;1.56;65.07
46347;BME280;32057;47.830;19.046;2023-02-28T08:15:56;101483.09;;;1.74;65.27
46347;BME280;32057;47.830;19.046;2023-02-28T08:18:23;101486.31;;;1.84;62.04
46347;BME280;32057;47.830;19.046;2023-02-28T08:20:48;101486.31;;;1.84;61.83
46347;BME280;32057;47.830;19.046;2023-02-28T08:23:14;101487.00;;;1.93;66.05
46347;BME280;32057;47.830;19.046;2023-02-28T08:25:40;101485.31;;;1.93;64.45
46347;BME280;32057;47.830;19.046;2023-02-28T08:28:05;101486.13;;;2.04;61.93
46347;BME280;32057;47.830;19.046;2023-02-28T08:30:30;101476.94;;;2.19;62.78
46347;BME280;32057;47.830;19.046;2023-02-28T08:32:56;101481.53;;;2.24;61.82
46347;BME280;32057;47.830;19.046;2023-02-28T08:35:22;101480.56;;;2.10;60.65
46347;BME280;32057;47.830;19.046;2023-02-28T08:37:48;101478.06;;;2.11;62.24
46347;BME280;32057;47.830;19.046;2023-02-28T08:40:14;101474.75;;;2.24;62.27
46347;BME280;32057;47.830;19.046;2023-02-28T08:42:46;101481.75;;;2.38;63.45
46347;BME280;32057;47.830;19.046;2023-02-28T08:45:13;101483.19;;;2.47;61.24
46347;BME280;32057;47.830;19.046;2023-02-28T08:47:39;101483.50;;;2.51;60.92
46347;BME280;32057;47.830;19.046;2023-02-28T08:50:05;101481.75;;;2.50;60.11
46347;BME280;32057;47.830;19.046;2023-02-28T08:52:30;101484.53;;;2.42;61.46
46347;BME280;32057;47.830;19.046;2023-02-28T08:54:56;101473.81;;;2.24;61.82
46347;BME280;32057;47.830;19.046;2023-02-28T08:57:21;101483.00;;;2.32;60.43
46347;BME280;32057;47.830;19.046;2023-02-28T08:59:46;101475.63;;;2.36;62.32
46347;BME280;32057;47.830;19.046;2023-02-28T09:02:14;101478.50;;;2.29;60.08
46347;BME280;32057;47.830;19.046;2023-02-28T09:04:40;101483.31;;;2.36;62.00
46347;BME280;32057;47.830;19.046;2023-02-28T09:07:06;101484.84;;;2.70;62.25
46347;BME280;32057;47.830;19.046;2023-02-28T09:09:31;101483.16;;;2.70;60.20
46347;BME280;32057;47.830;19.046;2023-02-28T09:11:57;101471.59;;;2.77;61.68
46347;BME280;32057;47.830;19.046;2023-02-28T09:14:23;101472.94;;;2.84;59.13
46347;BME280;32057;47.830;19.046;2023-02-28T09:16:48;101468.53;;;2.94;60.58
46347;BME280;32057;47.830;19.046;2023-02-28T09:19:14;101474.34;;;3.04;60.51
46347;BME280;32057;47.830;19.046;2023-02-28T09:21:40;101473.19;;;3.12;57.96
46347;BME280;32057;47.830;19.046;2023-02-28T09:24:06;101466.34;;;3.12;59.25
46347;BME280;32057;47.830;19.046;2023-02-28T09:26:31;101467.53;;;3.17;57.87
46347;BME280;32057;47.830;19.046;2023-02-28T09:28:57;101462.72;;;3.22;60.37
46347;BME280;32057;47.830;19.046;2023-02-28T09:31:26;101454.94;;;3.34;61.37
46347;BME280;32057;47.830;19.046;2023-02-28T09:33:55;101463.25;;;3.43;56.82
46347;BME280;32057;47.830;19.046;2023-02-28T09:36:22;101464.78;;;3.39;58.05
46347;BME280;32057;47.830;19.046;2023-02-28T09:38:48;101476.53;;;3.49;56.01
46347;BME280;32057;47.830;19.046;2023-02-28T09:41:21;101464.78;;;3.53;56.97
46347;BME280;32057;47.830;19.046;2023-02-28T09:43:53;101461.25;;;3.64;58.15
46347;BME280;32057;47.830;19.046;2023-02-28T09:46:33;101471.59;;;3.77;59.13
46347;BME280;32057;47.830;19.046;2023-02-28T09:49:06;101469.81;;;3.90;59.41
46347;BME280;32057;47.830;19.046;2023-02-28T09:54:21;101466.25;;;3.88;54.90
46347;BME280;32057;47.830;19.046;2023-02-28T09:57:14;101469.59;;;3.87;56.63
46347;BME280;32057;47.830;19.046;2023-02-28T10:03:11;101468.91;;;4.03;57.93
46347;BME280;32057;47.830;19.046;2023-02-28T10:05:28;101478.41;;;4.17;58.16
46347;BME280;32057;47.830;19.046;2023-02-28T10:08:18;101479.50;;;4.07;57.98
46347;BME280;32057;47.830;19.046;2023-02-28T10:11:01;101468.22;;;4.18;58.51
46347;BME280;32057;47.830;19.046;2023-02-28T10:13:58;101470.59;;;4.02;57.52
46347;BME280;32057;47.830;19.046;2023-02-28T10:19:01;101467.59;;;4.09;58.75
46347;BME280;32057;47.830;19.046;2023-02-28T10:21:34;101461.28;;;4.17;58.84
46347;BME280;32057;47.830;19.046;2023-02-28T10:24:15;101452.56;;;4.15;58.23
46347;BME280;32057;47.830;19.046;2023-02-28T10:26:45;101450.56;;;4.25;56.13
46347;BME280;32057;47.830;19.046;2023-02-28T10:29:11;101455.50;;;4.35;60.58
46347;BME280;32057;47.830;19.046;2023-02-28T10:31:38;101444.72;;;4.41;58.48
46347;BME280;32057;47.830;19.046;2023-02-28T10:34:04;101444.81;;;4.42;59.07
46347;BME280;32057;47.830;19.046;2023-02-28T10:36:32;101438.84;;;4.43;57.61
46347;BME280;32057;47.830;19.046;2023-02-28T10:38:57;101434.59;;;4.44;56.95
46347;BME280;32057;47.830;19.046;2023-02-28T10:41:30;101434.81;;;4.33;55.15
46347;BME280;32057;47.830;19.046;2023-02-28T10:44:30;101429.97;;;4.25;56.82
46347;BME280;32057;47.830;19.046;2023-02-28T10:46:56;101424.91;;;4.26;57.17
46347;BME280;32057;47.830;19.046;2023-02-28T10:49:28;101428.09;;;4.22;56.35
46347;BME280;32057;47.830;19.046;2023-02-28T10:51:59;101418.19;;;4.56;58.96
46347;BME280;32057;47.830;19.046;2023-02-28T10:54:36;101421.22;;;4.77;57.48
46347;BME280;32057;47.830;19.046;2023-02-28T10:59:33;101427.63;;;4.84;55.23
46347;BME280;32057;47.830;19.046;2023-02-28T11:01:58;101419.50;;;4.91;55.21
46347;BME280;32057;47.830;19.046;2023-02-28T11:09:45;101407.72;;;4.82;55.98
46347;BME280;32057;47.830;19.046;2023-02-28T11:12:39;101404.38;;;4.97;55.37
46347;BME280;32057;47.830;19.046;2023-02-28T11:15:27;101402.34;;;5.07;54.78
46347;BME280;32057;47.830;19.046;2023-02-28T11:18:19;101401.25;;;4.88;55.36
46347;BME280;32057;47.830;19.046;2023-02-28T11:20:50;101401.47;;;4.78;55.17
46347;BME280;32057;47.830;19.046;2023-02-28T11:23:18;101390.31;;;4.92;55.50
46347;BME280;32057;47.830;19.046;2023-02-28T11:25:51;101387.81;;;4.94;53.69
46347;BME280;32057;47.830;19.046;2023-02-28T11:28:33;101390.22;;;4.91;55.46
46347;BME280;32057;47.830;19.046;2023-02-28T11:31:19;101391.34;;;4.81;55.03
46347;BME280;32057;47.830;19.046;2023-02-28T11:33:55;101379.44;;;4.83;54.85
46347;BME280;32057;47.830;19.046;2023-02-28T11:36:31;101381.94;;;4.82;56.69
46347;BME280;32057;47.830;19.046;2023-02-28T11:38:59;101374.41;;;4.99;55.09
46347;BME280;32057;47.830;19.046;2023-02-28T11:41:46;101381.94;;;4.96;56.54
46347;BME280;32057;47.830;19.046;2023-02-28T11:44:27;101380.25;;;4.97;56.42
46347;BME280;32057;47.830;19.046;2023-02-28T11:47:01;101378.75;;;5.01;55.77
46347;BME280;32057;47.830;19.046;2023-02-28T11:49:49;101374.69;;;5.04;55.97
46347;BME280;32057;47.830;19.046;2023-02-28T11:53:00;101380.22;;;5.25;55.89
46347;BME280;32057;47.830;19.046;2023-02-28T11:55:36;101381.78;;;5.08;56.83
46347;BME280;32057;47.830;19.046;2023-02-28T11:58:06;101382.22;;;4.86;57.61
46347;BME280;32057;47.830;19.046;2023-02-28T12:01:03;101374.88;;;4.79;57.17
46347;BME280;32057;47.830;19.046;2023-02-28T12:04:17;101370.09;;;4.85;57.20
46347;BME280;32057;47.830;19.046;2023-02-28T12:06:38;101365.22;;;4.90;57.06
46347;BME280;32057;47.830;19.046;2023-02-28T12:12:06;101363.72;;;5.23;58.37
46347;BME280;32057;47.830;19.046;2023-02-28T12:19:59;101359.75;;;5.28;57.15
46347;BME280;32057;47.830;19.046;2023-02-28T12:22:32;101351.19;;;5.44;56.16
46347;BME280;32057;47.830;19.046;2023-02-28T12:27:37;101343.69;;;5.64;58.02
46347;BME280;32057;47.830;19.046;2023-02-28T12:30:21;101338.00;;;5.69;57.80
46347;BME280;32057;47.830;19.046;2023-02-28T12:32:48;101339.16;;;5.59;56.15
46347;BME280;32057;47.830;19.046;2023-02-28T12:35:21;101334.81;;;5.44;56.89
46347;BME280;32057;47.830;19.046;2023-02-28T12:37:56;101323.59;;;5.58;56.79
46347;BME280;32057;47.830;19.046;2023-02-28T12:40:27;101332.13;;;5.57;57.81
46347;BME280;32057;47.830;19.046;2023-02-28T12:42:57;101336.06;;;5.65;57.34
46347;BME280;32057;47.830;19.046;2023-02-28T12:45:27;101324.50;;;5.75;56.14
46347;BME280;32057;47.830;19.046;2023-02-28T12:48:00;101326.59;;;5.51;55.59
46347;BME280;32057;47.830;19.046;2023-02-28T12:50:28;101321.78;;;5.57;56.35
46347;BME280;32057;47.830;19.046;2023-02-28T12:56:19;101317.69;;;5.75;56.82
46347;BME280;32057;47.830;19.046;2023-02-28T12:59:03;101310.19;;;5.80;56.64
46347;BME280;32057;47.830;19.046;2023-02-28T13:01:41;101309.78;;;5.89;57.58
46347;BME280;32057;47.830;19.046;2023-02-28T13:04:29;101310.50;;;6.01;56.76
46347;BME280;32057;47.830;19.046;2023-02-28T13:09:38;101312.09;;;5.99;58.21
46347;BME280;32057;47.830;19.046;2023-02-28T13:12:15;101307.47;;;5.93;56.68
46347;BME280;32057;47.830;19.046;2023-02-28T13:14:42;101310.50;;;6.01;56.88
46347;BME280;32057;47.830;19.046;2023-02-28T13:19:41;101305.41;;;6.03;57.35
46347;BME280;32057;47.830;19.046;2023-02-28T13:25:01;101297.41;;;5.98;55.80
46347;BME280;32057;47.830;19.046;2023-02-28T13:27:41;101297.84;;;5.91;56.60
46347;BME280;32057;47.830;19.046;2023-02-28T13:38:37;101297.94;;;6.07;56.03
46347;BME280;32057;47.830;19.046;2023-02-28T13:41:42;101300.91;;;5.84;55.42
46347;BME280;32057;47.830;19.046;2023-02-28T13:51:52;101297.09;;;5.46;58.97
46347;BME280;32057;47.830;19.046;2023-02-28T14:05:18;101289.44;;;5.32;58.86
46347;BME280;32057;47.830;19.046;2023-02-28T14:07:54;101281.25;;;5.39;57.91
46347;BME280;32057;47.830;19.046;2023-02-28T14:10:28;101281.16;;;5.38;58.40
46347;BME280;32057;47.830;19.046;2023-02-28T14:13:41;101272.16;;;5.46;58.48
46347;BME280;32057;47.830;19.046;2023-02-28T14:15:57;101267.00;;;5.46;57.81
46347;BME280;32057;47.830;19.046;2023-02-28T14:18:35;101275.56;;;5.45;57.69
46347;BME280;32057;47.830;19.046;2023-02-28T14:26:55;101273.81;;;5.61;58.17
46347;BME280;32057;47.830;19.046;2023-02-28T14:29:34;101269.47;;;5.45;59.01
46347;BME280;32057;47.830;19.046;2023-02-28T14:37:33;101261.19;;;5.82;57.92
46347;BME280;32057;47.830;19.046;2023-02-28T14:40:03;101254.75;;;5.90;58.44
46347;BME280;32057;47.830;19.046;2023-02-28T14:42:34;101262.72;;;5.94;57.88
46347;BME280;32057;47.830;19.046;2023-02-28T14:45:01;101254.91;;;5.93;57.83
46347;BME280;32057;47.830;19.046;2023-02-28T14:47:30;101259.03;;;5.89;57.40
46347;BME280;32057;47.830;19.046;2023-02-28T14:49:57;101264.19;;;5.89;58.60
46347;BME280;32057;47.830;19.046;2023-02-28T14:52:25;101265.81;;;5.87;57.63
46347;BME280;32057;47.830;19.046;2023-02-28T14:54:55;101264.19;;;5.89;59.02